Pagrindinis puslapis
METAR-TAF:

METAR-TAF

Oro uostai :

Rerusas, Norvegija

platuma: 62-35N, ilguma: 011-21E, Aukštis: 626 m

Dabartinis oras

Ataskaita buvo paskelbta 21 minutes, ne 22:50 UTC
Vėjas 4 kt iš Vakarų/Pietvakarių, svyruoja nuo Pietryčių ir Vakarų
Temperatūra -13°C
Drėgmė 92%
Slėgis 998 hPa
Matomumas 10 km arba daugiau

METAR: ENRO 242250Z AUTO 24004KT 130V280 9999NDV SCT020/// M13/M14 Q0998

Laikas: 00:11 (23:11 UTC)

Prognozė

Ataskaita buvo paskelbta 12 valandos ir 11 minutes, ne 11:00 UTC
Prognozė galioja nuo 24 metu 12 UTC su 24 metu 20 UTC
Vėjas 5 kt nuo kintamojo kryptimis
Matomumas 10 km arba daugiau
Išsisklaidę debesys ne aukštis 4000 ft
Laikinai
nuo 24 metu 12 UTC su 24 metu 18 UTC
Matomumas: 2500 m
ne aukštis 1200 ft
sniegas

TAF: ENRO 241100Z 2412/2420 VRB05KT 9999 SCT040 TEMPO 2412/2418 2500 -SHSN VV012

Orai ataskaitas ir orų prognozės (METAR, TAF).

turimą stotys yra geltonos ir raudonos taškus žemėlapyje.

Perkelti pele per norėdami pamatyti stoties vardą.

Tada spustelėkite, norėdami matyti oro stebėjimo ir prognozės.

Norėdami pakeisti žemėlapį: spustelėkite ant žalios mygtukų su juodo kryžiaus žemyn,; žalią mygtuką su brūkšneliu, jei norite nutolinti; arba žalių rodyklių gretimoms žemėlapius.


METAR-TAF: